createdAt,value
2022-09-04T00:01:39.519Z,13.50
2022-09-04T00:04:23.763Z,13.50
2022-09-04T00:07:01.303Z,13.50
2022-09-04T00:09:37.491Z,13.40
2022-09-04T00:12:08.944Z,13.40
2022-09-04T00:14:50.542Z,13.30
2022-09-04T00:17:24.954Z,13.30
2022-09-04T00:19:59.452Z,13.30
2022-09-04T00:22:35.264Z,13.20
2022-09-04T00:25:13.836Z,13.20
2022-09-04T00:27:47.574Z,13.20
2022-09-04T00:30:21.443Z,13.10
2022-09-04T00:32:56.122Z,13.10
2022-09-04T00:35:31.405Z,13.00
2022-09-04T00:38:04.672Z,13.00
2022-09-04T00:40:35.830Z,13.00
2022-09-04T00:43:55.434Z,12.90
2022-09-04T00:46:54.124Z,12.90
2022-09-04T00:49:51.242Z,12.90
2022-09-04T00:52:38.598Z,12.80
2022-09-04T00:55:28.052Z,12.80
2022-09-04T00:58:12.463Z,12.70
2022-09-04T01:00:41.281Z,12.70
2022-09-04T01:03:27.470Z,12.60
2022-09-04T01:06:13.661Z,12.60
2022-09-04T01:09:03.874Z,12.50
2022-09-04T01:11:41.335Z,12.50
2022-09-04T01:14:15.815Z,12.50
2022-09-04T01:16:49.335Z,12.40
2022-09-04T01:19:37.733Z,12.40
2022-09-04T01:22:18.253Z,12.40
2022-09-04T01:25:05.843Z,12.40
2022-09-04T01:27:43.481Z,12.40
2022-09-04T01:30:16.441Z,12.30
2022-09-04T01:32:54.733Z,12.30
2022-09-04T01:35:32.103Z,12.30
2022-09-04T01:38:07.857Z,12.30
2022-09-04T01:40:43.433Z,12.20
2022-09-04T01:43:17.655Z,12.20
2022-09-04T01:46:22.912Z,12.20
2022-09-04T01:48:58.705Z,12.10
2022-09-04T01:51:31.794Z,12.10
2022-09-04T01:54:12.504Z,12.00
2022-09-04T01:56:47.024Z,12.00
2022-09-04T01:59:27.033Z,11.90
2022-09-04T02:02:02.048Z,11.90
2022-09-04T02:04:35.994Z,11.90
2022-09-04T02:07:16.146Z,11.80
2022-09-04T02:09:53.884Z,11.80
2022-09-04T02:12:34.588Z,11.70
2022-09-04T02:15:12.853Z,11.70
2022-09-04T02:17:48.502Z,11.70
2022-09-04T02:20:24.585Z,11.70
2022-09-04T02:23:06.327Z,11.60
2022-09-04T02:25:42.541Z,11.60
2022-09-04T02:28:24.226Z,11.60
2022-09-04T02:31:02.516Z,11.60
2022-09-04T02:33:38.651Z,11.60
2022-09-04T02:36:11.497Z,11.60
2022-09-04T02:39:10.461Z,11.60
2022-09-04T02:41:51.459Z,11.50
2022-09-04T02:44:31.026Z,11.50
2022-09-04T02:47:12.369Z,11.50
2022-09-04T02:49:55.512Z,11.40
2022-09-04T02:52:37.448Z,11.40
2022-09-04T02:55:19.172Z,11.40
2022-09-04T02:58:02.207Z,11.30
2022-09-04T03:00:40.443Z,11.30
2022-09-04T03:03:15.603Z,11.30
2022-09-04T03:05:51.737Z,11.20
2022-09-04T03:08:24.913Z,11.20
2022-09-04T03:10:59.240Z,11.20
2022-09-04T03:13:33.667Z,11.20
2022-09-04T03:16:08.069Z,11.20
2022-09-04T03:18:57.969Z,11.20
2022-09-04T03:21:33.325Z,11.20
2022-09-04T03:24:08.862Z,11.20
2022-09-04T03:26:40.513Z,11.10
2022-09-04T03:29:19.713Z,11.10
2022-09-04T03:31:54.557Z,11.10
2022-09-04T03:34:41.917Z,11.10
2022-09-04T03:37:34.076Z,11.00
2022-09-04T03:40:25.934Z,11.00
2022-09-04T03:43:09.803Z,11.00
2022-09-04T03:45:47.962Z,11.00
2022-09-04T03:48:34.968Z,10.90
2022-09-04T03:51:17.165Z,10.90
2022-09-04T03:54:03.424Z,10.90
2022-09-04T03:56:59.628Z,10.90
2022-09-04T03:59:42.530Z,10.80
2022-09-04T04:02:20.899Z,10.80
2022-09-04T04:05:23.916Z,10.80
2022-09-04T04:08:12.673Z,10.70
2022-09-04T04:10:54.084Z,10.70
2022-09-04T04:13:55.298Z,10.70
2022-09-04T04:16:40.703Z,10.70
2022-09-04T04:19:24.341Z,10.70
2022-09-04T04:22:10.356Z,10.60
2022-09-04T04:25:05.916Z,10.60
2022-09-04T04:28:05.338Z,10.60
2022-09-04T04:30:45.103Z,10.60
2022-09-04T04:33:32.564Z,10.60
2022-09-04T04:36:34.924Z,10.60
2022-09-04T04:39:28.171Z,10.60
2022-09-04T04:42:13.651Z,10.60
2022-09-04T04:45:23.617Z,10.60
2022-09-04T04:48:24.021Z,10.60
2022-09-04T04:51:07.802Z,10.60
2022-09-04T04:53:43.922Z,10.60
2022-09-04T04:56:19.320Z,10.60
2022-09-04T04:59:03.102Z,10.60
2022-09-04T05:01:43.770Z,10.60
2022-09-04T05:04:18.784Z,10.60
2022-09-04T05:06:54.189Z,10.60
2022-09-04T05:09:32.443Z,10.60
2022-09-04T05:12:10.611Z,10.60
2022-09-04T05:14:51.604Z,10.70
2022-09-04T05:17:28.445Z,10.80
2022-09-04T05:20:19.513Z,10.90
2022-09-04T05:22:53.655Z,11.00
2022-09-04T05:25:29.332Z,11.20
2022-09-04T05:28:11.733Z,11.40
2022-09-04T05:30:48.634Z,11.50
2022-09-04T05:33:29.870Z,11.70
2022-09-04T05:36:06.653Z,11.90
2022-09-04T05:38:45.467Z,12.00
2022-09-04T05:41:27.853Z,12.10
2022-09-04T05:44:08.673Z,12.40
2022-09-04T05:46:52.259Z,12.70
2022-09-04T05:49:34.026Z,12.90
2022-09-04T05:52:28.814Z,13.30
2022-09-04T05:55:31.925Z,13.60
2022-09-04T05:58:30.613Z,14.00
2022-09-04T06:01:09.945Z,14.30
2022-09-04T06:03:58.861Z,14.70
2022-09-04T06:06:38.233Z,14.90
2022-09-04T06:09:27.845Z,15.10
2022-09-04T06:12:30.192Z,15.50
2022-09-04T06:15:14.576Z,15.90
2022-09-04T06:18:07.953Z,16.10
2022-09-04T06:21:02.986Z,16.40
2022-09-04T06:23:51.060Z,16.80
2022-09-04T06:26:43.182Z,17.30
2022-09-04T06:29:43.102Z,17.90
2022-09-04T06:32:51.421Z,18.40
2022-09-04T06:35:33.162Z,18.90
2022-09-04T06:38:32.643Z,19.40
2022-09-04T06:41:26.974Z,19.80
2022-09-04T06:44:01.894Z,20.30
2022-09-04T06:46:40.134Z,20.80
2022-09-04T06:49:13.864Z,21.30
2022-09-04T06:51:53.184Z,21.60
2022-09-04T06:54:38.628Z,21.80
2022-09-04T06:57:32.958Z,22.10
2022-09-04T07:00:06.544Z,22.50
2022-09-04T07:03:11.545Z,22.90
2022-09-04T07:05:50.861Z,23.00
2022-09-04T07:08:33.674Z,23.30
2022-09-04T07:11:15.175Z,23.40
2022-09-04T07:14:06.804Z,23.40
2022-09-04T07:16:43.081Z,23.10
2022-09-04T07:19:41.153Z,22.80
2022-09-04T07:22:31.410Z,22.60
2022-09-04T07:25:11.936Z,22.60
2022-09-04T07:28:03.111Z,22.60
2022-09-04T07:30:36.154Z,22.70
2022-09-04T07:33:11.639Z,22.70
2022-09-04T07:35:44.806Z,23.00
2022-09-04T07:38:25.970Z,22.80
2022-09-04T07:41:00.125Z,22.90
2022-09-04T07:43:39.513Z,23.10
2022-09-04T07:46:14.990Z,23.40
2022-09-04T07:48:48.643Z,23.70
2022-09-04T07:51:18.893Z,23.90
2022-09-04T07:54:22.860Z,23.80
2022-09-04T07:57:21.373Z,23.60
2022-09-04T08:00:06.306Z,23.80
2022-09-04T08:02:49.105Z,24.10
2022-09-04T08:05:25.123Z,24.40
2022-09-04T08:08:13.384Z,24.10
2022-09-04T08:11:00.886Z,24.40
2022-09-04T08:13:50.362Z,24.20
2022-09-04T08:16:28.676Z,23.90
2022-09-04T08:19:20.206Z,23.90
2022-09-04T08:21:50.046Z,23.90
2022-09-04T08:24:31.106Z,24.50
2022-09-04T08:27:11.114Z,25.00
2022-09-04T08:29:54.967Z,25.50
2022-09-04T08:32:58.603Z,25.70
2022-09-04T08:35:32.272Z,26.10
2022-09-04T08:38:23.155Z,26.40
2022-09-04T08:41:22.537Z,26.70
2022-09-04T08:44:33.843Z,27.00
2022-09-04T08:47:38.503Z,27.40
2022-09-04T08:50:31.029Z,27.40
2022-09-04T08:53:23.713Z,27.60
2022-09-04T08:56:08.314Z,27.80
2022-09-04T08:59:05.301Z,28.00
2022-09-04T09:02:14.314Z,28.20
2022-09-04T09:05:24.070Z,28.70
2022-09-04T09:08:31.774Z,28.90
2022-09-04T09:11:41.382Z,29.30
2022-09-04T09:14:35.132Z,29.20
2022-09-04T09:17:13.933Z,28.80
2022-09-04T09:19:47.374Z,28.70
2022-09-04T09:23:02.355Z,29.00
2022-09-04T09:25:44.964Z,29.20
2022-09-04T09:28:57.952Z,29.60
2022-09-04T09:32:11.046Z,29.40
2022-09-04T09:35:16.513Z,29.70
2022-09-04T09:38:27.232Z,29.10
2022-09-04T09:41:46.621Z,28.70
2022-09-04T09:44:51.992Z,29.10
2022-09-04T09:47:52.956Z,28.60
2022-09-04T09:50:50.128Z,29.10
2022-09-04T09:53:54.234Z,29.20
2022-09-04T09:56:56.853Z,28.80
2022-09-04T10:00:02.582Z,29.20
2022-09-04T10:03:15.442Z,28.70
2022-09-04T10:06:11.108Z,29.30
2022-09-04T10:09:27.508Z,29.90
2022-09-04T10:12:32.531Z,30.40
2022-09-04T10:15:37.757Z,30.30
2022-09-04T10:18:48.270Z,30.00
2022-09-04T10:21:53.192Z,29.70
2022-09-04T10:25:04.549Z,30.20
2022-09-04T10:28:06.350Z,30.60
2022-09-04T10:30:53.167Z,30.80
2022-09-04T10:33:32.083Z,29.60
2022-09-04T10:36:20.489Z,29.90
2022-09-04T10:39:22.132Z,30.10
2022-09-04T10:42:09.860Z,30.50
2022-09-04T10:45:14.546Z,30.40
2022-09-04T10:48:14.379Z,29.90
2022-09-04T10:51:21.635Z,29.90
2022-09-04T10:54:20.145Z,29.90
2022-09-04T10:57:02.988Z,29.40
2022-09-04T11:00:00.561Z,29.90
2022-09-04T11:03:04.619Z,30.10
2022-09-04T11:06:02.454Z,30.30
2022-09-04T11:08:47.212Z,30.80
2022-09-04T11:11:32.680Z,30.60
2022-09-04T11:14:20.839Z,31.00
2022-09-04T11:17:28.448Z,31.10
2022-09-04T11:20:27.042Z,30.90
2022-09-04T11:23:40.161Z,31.20
2022-09-04T11:26:57.511Z,31.80
2022-09-04T11:29:46.391Z,32.10
2022-09-04T11:32:48.813Z,32.60
2022-09-04T11:35:50.361Z,32.20
2022-09-04T11:38:43.805Z,32.10
2022-09-04T11:41:57.762Z,31.60
2022-09-04T11:45:06.940Z,32.30
2022-09-04T11:47:56.911Z,32.70
2022-09-04T11:50:42.160Z,32.70
2022-09-04T11:53:40.354Z,32.20
2022-09-04T11:56:37.172Z,32.20
2022-09-04T11:59:35.712Z,32.10
2022-09-04T12:02:36.913Z,32.00
2022-09-04T12:05:17.882Z,31.90
2022-09-04T12:08:05.140Z,32.40
2022-09-04T12:10:56.142Z,31.90
2022-09-04T12:13:41.322Z,31.30
2022-09-04T12:16:44.488Z,30.90
2022-09-04T12:19:55.312Z,30.50
2022-09-04T12:23:34.726Z,31.00
2022-09-04T12:26:59.936Z,31.70
2022-09-04T12:30:01.218Z,32.50
2022-09-04T12:33:08.449Z,32.50
2022-09-04T12:36:18.831Z,32.70
2022-09-04T12:39:25.802Z,32.70
2022-09-04T12:42:02.820Z,32.30
2022-09-04T12:44:42.153Z,32.10
2022-09-04T12:47:24.910Z,32.30
2022-09-04T12:50:16.567Z,32.80
2022-09-04T12:53:16.874Z,33.00
2022-09-04T12:56:01.163Z,33.20
2022-09-04T12:58:50.402Z,33.00
2022-09-04T13:01:32.219Z,33.40
2022-09-04T13:04:07.401Z,33.30
2022-09-04T13:06:44.452Z,33.10
2022-09-04T13:09:22.163Z,33.10
2022-09-04T13:12:03.641Z,33.10
2022-09-04T13:15:09.300Z,33.50
2022-09-04T13:17:48.541Z,34.10
2022-09-04T13:20:27.074Z,34.20
2022-09-04T13:23:15.230Z,34.50
2022-09-04T13:25:59.664Z,34.70
2022-09-04T13:28:39.766Z,34.90
2022-09-04T13:31:34.110Z,34.80
2022-09-04T13:34:13.477Z,34.90
2022-09-04T13:36:54.310Z,34.30
2022-09-04T13:39:50.590Z,33.60
2022-09-04T13:42:40.161Z,33.00
2022-09-04T13:45:14.040Z,32.40
2022-09-04T13:47:54.330Z,31.90
2022-09-04T13:50:28.242Z,32.30
2022-09-04T13:53:03.061Z,32.60
2022-09-04T13:55:34.411Z,32.60
2022-09-04T14:01:13.801Z,32.00
2022-09-04T14:03:47.102Z,31.30
2022-09-04T14:06:19.769Z,30.90
2022-09-04T14:08:59.719Z,30.90
2022-09-04T14:12:11.151Z,31.00
2022-09-04T14:15:03.151Z,31.90
2022-09-04T14:17:42.546Z,33.00
2022-09-04T14:20:22.211Z,33.80
2022-09-04T14:23:03.820Z,34.80
2022-09-04T14:25:41.326Z,35.20
2022-09-04T14:28:18.085Z,35.40
2022-09-04T14:30:59.637Z,35.60
2022-09-04T14:33:40.302Z,36.00
2022-09-04T14:36:21.832Z,36.50
2022-09-04T14:39:15.212Z,36.70
2022-09-04T14:42:12.318Z,36.30
2022-09-04T14:44:58.391Z,36.00
2022-09-04T14:47:37.142Z,35.50
2022-09-04T14:50:10.032Z,35.30
2022-09-04T14:52:42.971Z,35.10
2022-09-04T14:55:17.480Z,35.70
2022-09-04T14:57:51.479Z,35.90
2022-09-04T15:00:22.228Z,36.60
2022-09-04T15:03:02.394Z,36.90
2022-09-04T15:05:40.046Z,37.20
2022-09-04T15:08:09.352Z,37.40
2022-09-04T15:10:50.527Z,37.50
2022-09-04T15:13:59.914Z,37.00
2022-09-04T15:16:46.743Z,37.00
2022-09-04T15:19:31.195Z,36.10
2022-09-04T15:22:07.074Z,35.00
2022-09-04T15:24:38.782Z,34.90
2022-09-04T15:27:32.820Z,33.90
2022-09-04T15:30:06.607Z,33.50
2022-09-04T15:32:41.984Z,33.80
2022-09-04T15:35:16.989Z,34.30
2022-09-04T15:37:50.752Z,34.10
2022-09-04T15:40:35.361Z,34.00
2022-09-04T15:43:11.831Z,34.20
2022-09-04T15:45:47.760Z,34.50
2022-09-04T15:48:38.435Z,34.60
2022-09-04T15:51:20.134Z,34.80
2022-09-04T15:54:09.783Z,34.80
2022-09-04T15:56:45.491Z,34.60
2022-09-04T15:59:18.444Z,34.30
2022-09-04T16:01:52.141Z,33.60
2022-09-04T16:04:33.895Z,33.10
2022-09-04T16:07:34.276Z,32.90
2022-09-04T16:10:16.146Z,32.80
2022-09-04T16:12:53.375Z,32.80
2022-09-04T16:15:28.031Z,32.80
2022-09-04T16:18:00.402Z,32.70
2022-09-04T16:20:35.514Z,32.40
2022-09-04T16:23:08.645Z,32.00
2022-09-04T16:25:41.900Z,31.40
2022-09-04T16:28:15.476Z,30.90
2022-09-04T16:30:47.806Z,30.50
2022-09-04T16:33:28.221Z,30.20
2022-09-04T16:36:03.381Z,29.90
2022-09-04T16:38:42.389Z,29.70
2022-09-04T16:41:16.721Z,29.50
2022-09-04T16:44:33.792Z,29.30
2022-09-04T16:47:25.623Z,29.10
2022-09-04T16:50:01.406Z,28.90
2022-09-04T16:52:54.944Z,28.70
2022-09-04T16:55:47.310Z,28.60
2022-09-04T16:58:35.474Z,28.40
2022-09-04T17:01:14.711Z,28.20
2022-09-04T17:04:12.490Z,28.20
2022-09-04T17:07:02.877Z,28.00
2022-09-04T17:10:01.861Z,27.80
2022-09-04T17:12:43.314Z,27.70
2022-09-04T17:15:27.045Z,27.60
2022-09-04T17:17:57.237Z,27.60
2022-09-04T17:21:55.210Z,27.50
2022-09-04T17:28:56.808Z,27.50
2022-09-04T17:29:07.927Z,27.40
2022-09-04T17:29:36.296Z,27.20
2022-09-04T17:32:32.181Z,27.10
2022-09-04T17:40:38.613Z,26.90
2022-09-04T17:40:38.903Z,26.80
2022-09-04T17:41:35.844Z,26.70
2022-09-04T17:44:31.897Z,26.50
2022-09-04T17:47:19.562Z,26.40
2022-09-04T17:49:50.829Z,26.30
2022-09-04T17:52:28.558Z,26.20
2022-09-04T17:55:03.289Z,26.00
2022-09-04T17:57:48.024Z,25.90
2022-09-04T18:00:20.692Z,25.80
2022-09-04T18:02:58.393Z,25.70
2022-09-04T18:05:33.601Z,25.60
2022-09-04T18:08:10.582Z,25.40
2022-09-04T18:10:53.172Z,25.20
2022-09-04T18:13:37.626Z,25.10
2022-09-04T18:16:19.655Z,25.00
2022-09-04T18:18:53.065Z,24.80
2022-09-04T18:21:27.898Z,24.60
2022-09-04T18:24:04.348Z,24.50
2022-09-04T18:26:40.965Z,24.40
2022-09-04T18:33:07.262Z,24.40
2022-09-04T18:37:08.684Z,24.30
2022-09-04T18:37:17.419Z,24.20
2022-09-04T18:38:21.912Z,24.10
2022-09-04T18:47:07.847Z,24.00
2022-09-04T18:50:28.111Z,23.60
2022-09-04T18:50:31.621Z,23.80
2022-09-04T18:50:38.691Z,23.70
2022-09-04T18:52:22.634Z,23.40
2022-09-04T18:55:01.710Z,23.30
2022-09-04T18:57:34.947Z,23.20
2022-09-04T19:00:09.592Z,23.10
2022-09-04T19:02:53.225Z,23.00
2022-09-04T19:05:24.152Z,22.90
2022-09-04T19:07:57.871Z,22.80
2022-09-04T19:10:29.408Z,22.70
2022-09-04T19:13:08.361Z,22.70
2022-09-04T19:16:01.544Z,22.60
2022-09-04T19:18:43.863Z,22.50
2022-09-04T19:21:31.699Z,22.40
2022-09-04T19:24:20.833Z,22.30
2022-09-04T19:27:27.031Z,22.20
2022-09-04T19:30:18.057Z,22.10
2022-09-04T19:33:06.575Z,22.00
2022-09-04T19:35:44.339Z,21.90
2022-09-04T19:43:30.469Z,21.90
2022-09-04T19:46:07.744Z,21.80
2022-09-04T19:46:15.403Z,21.70
2022-09-04T19:47:28.670Z,21.60
2022-09-04T19:53:21.785Z,21.40
2022-09-04T19:53:33.747Z,21.40
2022-09-04T19:55:48.806Z,21.30
2022-09-04T19:58:24.181Z,21.20
2022-09-04T20:00:59.402Z,21.10
2022-09-04T20:03:33.974Z,21.10
2022-09-04T20:06:20.570Z,21.00
2022-09-04T20:08:56.038Z,20.90
2022-09-04T20:11:35.733Z,20.80
2022-09-04T20:14:15.671Z,20.70
2022-09-04T20:16:54.215Z,20.70
2022-09-04T20:19:27.822Z,20.50
2022-09-04T20:22:03.672Z,20.40
2022-09-04T20:24:40.812Z,20.30
2022-09-04T20:27:16.009Z,20.20
2022-09-04T20:29:55.150Z,20.20
2022-09-04T20:32:28.512Z,20.10
2022-09-04T20:35:13.796Z,20.00
2022-09-04T20:37:53.368Z,20.00
2022-09-04T20:40:30.975Z,19.90
2022-09-04T20:43:14.632Z,19.80
2022-09-04T20:49:41.725Z,19.80
2022-09-04T20:52:48.680Z,19.70
2022-09-04T20:53:05.371Z,19.60
2022-09-04T20:54:49.083Z,19.60
2022-09-04T21:02:05.155Z,19.50
2022-09-04T21:03:09.429Z,19.50
2022-09-04T21:03:28.103Z,19.40
2022-09-04T21:06:17.842Z,19.40
2022-09-04T21:08:52.623Z,19.30
2022-09-04T21:11:40.336Z,19.20
2022-09-04T21:14:15.750Z,19.10
2022-09-04T21:17:18.846Z,19.10
2022-09-04T21:20:27.320Z,19.00
2022-09-04T21:23:16.201Z,18.90
2022-09-04T21:25:54.231Z,18.80
2022-09-04T21:29:10.976Z,18.80
2022-09-04T21:32:08.780Z,18.80
2022-09-04T21:34:54.651Z,18.70
2022-09-04T21:37:32.013Z,18.70
2022-09-04T21:40:51.405Z,18.60
2022-09-04T21:43:50.502Z,18.60
2022-09-04T21:47:08.666Z,18.50
2022-09-04T21:49:55.495Z,18.50
2022-09-04T21:52:56.259Z,18.50
2022-09-04T22:02:31.635Z,18.40
2022-09-04T22:02:39.479Z,18.30
2022-09-04T22:02:40.458Z,18.40
2022-09-04T22:05:07.119Z,18.30
2022-09-04T22:12:11.717Z,18.30
2022-09-04T22:13:37.633Z,18.20
2022-09-04T22:13:50.342Z,18.20
2022-09-04T22:16:41.996Z,18.20
2022-09-04T22:19:44.213Z,18.20
2022-09-04T22:22:33.243Z,18.20
2022-09-04T22:25:33.303Z,18.10
2022-09-04T22:28:16.907Z,18.00
2022-09-04T22:31:10.557Z,17.90
2022-09-04T22:34:17.553Z,17.90
2022-09-04T22:37:23.692Z,17.80
2022-09-04T22:40:08.590Z,17.80
2022-09-04T22:43:03.052Z,17.80
2022-09-04T22:45:58.310Z,17.70
2022-09-04T22:49:12.411Z,17.70
2022-09-04T22:52:01.210Z,17.60
2022-09-04T22:54:45.961Z,17.60
2022-09-04T22:57:22.704Z,17.50
2022-09-04T23:00:08.763Z,17.50
2022-09-04T23:03:09.566Z,17.40
2022-09-04T23:08:58.528Z,17.40
2022-09-04T23:13:53.168Z,17.30
2022-09-04T23:13:53.540Z,17.30
2022-09-04T23:15:40.442Z,17.20
2022-09-04T23:21:12.212Z,17.20
2022-09-04T23:26:42.226Z,17.10
2022-09-04T23:26:42.689Z,17.10
2022-09-04T23:27:34.154Z,17.00
2022-09-04T23:30:11.765Z,16.90
2022-09-04T23:33:38.733Z,16.90
2022-09-04T23:36:41.634Z,16.90
2022-09-04T23:39:39.272Z,16.80
2022-09-04T23:42:34.743Z,16.80
2022-09-04T23:45:28.424Z,16.80
2022-09-04T23:48:15.955Z,16.70
2022-09-04T23:50:58.428Z,16.70
2022-09-04T23:53:36.443Z,16.60
2022-09-04T23:56:18.031Z,16.60
2022-09-04T23:59:26.331Z,16.60
